LiveATC.Net - Listen to live air traffic control over the Internet!


ICAO: SBBI  IATA: BFH   Airport: Bacacheri Airport
City: Curitiba
Country: Brazil   Continent: South America
SBBI METAR Weather: SBBI 202300Z 12009KT 9999 FEW015 20/17 Q1021
SBBI Flight Activity (FlightAware)
SBBI Gnd/Twr #1
Feed Status: DOWN
Last heard on: 2017-01-19 00:56:04 (1 days 23 hours 27 minutes ago)
SBBI Gnd/Twr #1 Audio Archives
FacilityFrequency
Bacacheri Ground121.800
Bacacheri Tower118.900

TMA Curitiba Blog

SBBI Gnd/Twr #2
Feed Status: DOWN
Last heard on: 2016-11-11 15:49:03 (70 days 8 hours 34 minutes ago)
SBBI Gnd/Twr #2 Audio Archives
FacilityFrequency
Bacacheri Ground121.800
Bacacheri Tower118.900


NOTICE

Unauthorized use prohibited. See LiveATC.net Terms of Service


Find LiveATC Audio Streams


Airport/ARTCC Code

Frequency Search
(e.g., 124.400, 128.75)
Site-wide search
 


Browse LiveATC Feeds
LiveATC Coverage Map
Top 50 LiveATC Feeds
Bad Weather Areas

LiveATC FAQ
Offer a LiveATC Feed
Contact LiveATC.net
Press Inquiries

LiveATC on iPhone
LiveATC on Android

Windows Phone
Windows 8/10

LiveATC Mobile
(Mobile browser)

ATC Audio Archives
Interesting Recordings

LiveATC Forums


Home Page
About LiveATC.net
Make a Donation
LiveATC Store

Terms of Use
Privacy Policy

Canadian Air Freqs

AIRMETs/SIGMETs

FAA Airport Status
Nat'l Airspace Status
Arrival Demand Charts


Server Software By:
Icecast.org
Liquidsoap